sensor_id;sensor_type;location;lat;lon;timestamp;pressure;altitude;pressure_sealevel;temperature;humidity
12722;BME280;6425;50.316;8.114;2023-06-14T00:00:00;988;;;13;71
12722;BME280;6425;50.316;8.114;2023-06-14T00:03:00;988;;;13;71.4
12722;BME280;6425;50.316;8.114;2023-06-14T00:06:00;988;;;12.9;71.2
12722;BME280;6425;50.316;8.114;2023-06-14T00:09:00;988;;;12.8;71.8
12722;BME280;6425;50.316;8.114;2023-06-14T00:12:00;988;;;12.6;71.6
12722;BME280;6425;50.316;8.114;2023-06-14T00:15:00;988;;;12.6;72.2
12722;BME280;6425;50.316;8.114;2023-06-14T00:18:00;988;;;12.6;71.3
12722;BME280;6425;50.316;8.114;2023-06-14T00:21:00;988;;;12.6;71.4
12722;BME280;6425;50.316;8.114;2023-06-14T00:24:00;988;;;12.7;70.6
12722;BME280;6425;50.316;8.114;2023-06-14T00:27:00;988;;;12.7;70.9
12722;BME280;6425;50.316;8.114;2023-06-14T00:30:00;988;;;12.7;70.9
12722;BME280;6425;50.316;8.114;2023-06-14T00:33:00;988;;;12.9;70.6
12722;BME280;6425;50.316;8.114;2023-06-14T00:36:00;987;;;13;70.6
12722;BME280;6425;50.316;8.114;2023-06-14T00:39:00;988;;;13.1;70.1
12722;BME280;6425;50.316;8.114;2023-06-14T00:42:00;988;;;12.9;70.9
12722;BME280;6425;50.316;8.114;2023-06-14T00:45:00;988;;;12.9;70.8
12722;BME280;6425;50.316;8.114;2023-06-14T00:48:00;988;;;12.9;70.7
12722;BME280;6425;50.316;8.114;2023-06-14T00:51:00;988;;;12.7;71.6
12722;BME280;6425;50.316;8.114;2023-06-14T00:54:00;988;;;12.6;71.8
12722;BME280;6425;50.316;8.114;2023-06-14T00:57:00;988;;;12.7;72.1
12722;BME280;6425;50.316;8.114;2023-06-14T01:00:00;988;;;12.9;71.3
12722;BME280;6425;50.316;8.114;2023-06-14T01:03:00;988;;;12.9;71.1
12722;BME280;6425;50.316;8.114;2023-06-14T01:06:02;988;;;12.8;72.1
12722;BME280;6425;50.316;8.114;2023-06-14T01:09:02;988;;;12.7;72.4
12722;BME280;6425;50.316;8.114;2023-06-14T01:12:00;988;;;12.6;72.4
12722;BME280;6425;50.316;8.114;2023-06-14T01:15:00;988;;;12.6;72.6
12722;BME280;6425;50.316;8.114;2023-06-14T01:18:00;988;;;12.5;72.9
12722;BME280;6425;50.316;8.114;2023-06-14T01:21:00;988;;;12.5;72.8
12722;BME280;6425;50.316;8.114;2023-06-14T01:24:00;988;;;12.6;72.4
12722;BME280;6425;50.316;8.114;2023-06-14T01:27:00;988;;;12.5;72.4
12722;BME280;6425;50.316;8.114;2023-06-14T01:30:00;988;;;12.5;72.8
12722;BME280;6425;50.316;8.114;2023-06-14T01:33:00;988;;;12.4;73.1
12722;BME280;6425;50.316;8.114;2023-06-14T01:36:00;988;;;12.5;73.1
12722;BME280;6425;50.316;8.114;2023-06-14T01:39:00;988;;;12.4;73.5
12722;BME280;6425;50.316;8.114;2023-06-14T01:42:00;988;;;12.4;73.6
12722;BME280;6425;50.316;8.114;2023-06-14T01:45:00;988;;;12.2;74.3
12722;BME280;6425;50.316;8.114;2023-06-14T01:48:00;988;;;12.2;74.6
12722;BME280;6425;50.316;8.114;2023-06-14T01:51:00;988;;;12.1;74.3
12722;BME280;6425;50.316;8.114;2023-06-14T01:54:00;988;;;12.2;74.4
12722;BME280;6425;50.316;8.114;2023-06-14T01:57:00;988;;;12.2;73.8
12722;BME280;6425;50.316;8.114;2023-06-14T02:00:00;988;;;12.3;73.4
12722;BME280;6425;50.316;8.114;2023-06-14T02:03:00;988;;;12.1;73.6
12722;BME280;6425;50.316;8.114;2023-06-14T02:06:00;988;;;11.9;74.2
12722;BME280;6425;50.316;8.114;2023-06-14T02:09:00;988;;;12;74.2
12722;BME280;6425;50.316;8.114;2023-06-14T02:12:00;988;;;12;73.9
12722;BME280;6425;50.316;8.114;2023-06-14T02:15:00;988;;;12;73.7
12722;BME280;6425;50.316;8.114;2023-06-14T02:18:00;988;;;11.9;73.7
12722;BME280;6425;50.316;8.114;2023-06-14T02:21:00;988;;;11.9;73.1
12722;BME280;6425;50.316;8.114;2023-06-14T02:24:00;988;;;12;72.8
12722;BME280;6425;50.316;8.114;2023-06-14T02:27:00;988;;;12.2;72.1
12722;BME280;6425;50.316;8.114;2023-06-14T02:30:00;988;;;12.4;70
12722;BME280;6425;50.316;8.114;2023-06-14T02:33:00;988;;;12.9;67.3
12722;BME280;6425;50.316;8.114;2023-06-14T02:36:00;988;;;13;68.1
12722;BME280;6425;50.316;8.114;2023-06-14T02:39:00;988;;;12.9;68.5
12722;BME280;6425;50.316;8.114;2023-06-14T02:42:00;988;;;12.8;69.2
12722;BME280;6425;50.316;8.114;2023-06-14T02:45:00;988;;;12.6;69.8
12722;BME280;6425;50.316;8.114;2023-06-14T02:48:00;988;;;12.7;69.2
12722;BME280;6425;50.316;8.114;2023-06-14T02:51:00;988;;;12.9;68.9
12722;BME280;6425;50.316;8.114;2023-06-14T02:54:00;988;;;13;68.7
12722;BME280;6425;50.316;8.114;2023-06-14T02:57:00;988;;;13;68.9
12722;BME280;6425;50.316;8.114;2023-06-14T03:00:00;988;;;12.9;68.6
12722;BME280;6425;50.316;8.114;2023-06-14T03:03:00;988;;;12.9;69
12722;BME280;6425;50.316;8.114;2023-06-14T03:06:00;988;;;12.7;68.5
12722;BME280;6425;50.316;8.114;2023-06-14T03:09:00;988;;;12.6;69.3
12722;BME280;6425;50.316;8.114;2023-06-14T03:12:00;988;;;12.8;69
12722;BME280;6425;50.316;8.114;2023-06-14T03:15:00;988;;;12.9;67.8
12722;BME280;6425;50.316;8.114;2023-06-14T03:18:00;988;;;12.8;66.7
12722;BME280;6425;50.316;8.114;2023-06-14T03:21:00;988;;;12.9;65.6
12722;BME280;6425;50.316;8.114;2023-06-14T03:24:00;988;;;13.2;63.7
12722;BME280;6425;50.316;8.114;2023-06-14T03:27:00;988;;;13.6;61.9
12722;BME280;6425;50.316;8.114;2023-06-14T03:30:00;988;;;13.6;61.3
12722;BME280;6425;50.316;8.114;2023-06-14T03:33:00;988;;;13.8;61
12722;BME280;6425;50.316;8.114;2023-06-14T03:36:00;988;;;13.8;60.8
12722;BME280;6425;50.316;8.114;2023-06-14T03:39:00;988;;;13.8;61.7
12722;BME280;6425;50.316;8.114;2023-06-14T03:42:00;988;;;13.7;62.1
12722;BME280;6425;50.316;8.114;2023-06-14T03:45:00;988;;;13.5;63.3
12722;BME280;6425;50.316;8.114;2023-06-14T03:48:00;988;;;13.4;64.5
12722;BME280;6425;50.316;8.114;2023-06-14T03:51:00;988;;;13.2;66.2
12722;BME280;6425;50.316;8.114;2023-06-14T03:54:00;988;;;13;65.8
12722;BME280;6425;50.316;8.114;2023-06-14T03:57:00;988;;;13;66.5
12722;BME280;6425;50.316;8.114;2023-06-14T04:00:00;988;;;13.1;65.7
12722;BME280;6425;50.316;8.114;2023-06-14T04:03:00;988;;;13.4;64.4
12722;BME280;6425;50.316;8.114;2023-06-14T04:06:00;988;;;13.7;63.9
12722;BME280;6425;50.316;8.114;2023-06-14T04:09:00;989;;;13.9;62.4
12722;BME280;6425;50.316;8.114;2023-06-14T04:12:00;989;;;14;62.4
12722;BME280;6425;50.316;8.114;2023-06-14T04:15:00;989;;;14;61.9
12722;BME280;6425;50.316;8.114;2023-06-14T04:18:00;989;;;14.1;61.4
12722;BME280;6425;50.316;8.114;2023-06-14T04:21:00;989;;;14.3;60.8
12722;BME280;6425;50.316;8.114;2023-06-14T04:24:00;989;;;14.4;60.2
12722;BME280;6425;50.316;8.114;2023-06-14T04:27:00;989;;;14.6;60
12722;BME280;6425;50.316;8.114;2023-06-14T04:30:00;989;;;14.8;58.9
12722;BME280;6425;50.316;8.114;2023-06-14T04:33:00;989;;;15;58.6
12722;BME280;6425;50.316;8.114;2023-06-14T04:36:00;989;;;15.2;57.9
12722;BME280;6425;50.316;8.114;2023-06-14T04:39:00;989;;;15.3;57.9
12722;BME280;6425;50.316;8.114;2023-06-14T04:42:00;989;;;15.2;58
12722;BME280;6425;50.316;8.114;2023-06-14T04:45:00;989;;;15.1;58.1
12722;BME280;6425;50.316;8.114;2023-06-14T04:48:00;989;;;15.3;57.3
12722;BME280;6425;50.316;8.114;2023-06-14T04:51:00;989;;;15.7;57.3
12722;BME280;6425;50.316;8.114;2023-06-14T04:54:00;989;;;16.1;55.7
12722;BME280;6425;50.316;8.114;2023-06-14T04:57:00;989;;;16.3;55.2
12722;BME280;6425;50.316;8.114;2023-06-14T05:00:00;989;;;16.3;54.2
12722;BME280;6425;50.316;8.114;2023-06-14T05:03:00;989;;;15.9;54.7
12722;BME280;6425;50.316;8.114;2023-06-14T05:06:00;989;;;16;54.5
12722;BME280;6425;50.316;8.114;2023-06-14T05:09:00;989;;;16.3;54.4
12722;BME280;6425;50.316;8.114;2023-06-14T05:12:00;989;;;16.7;53.3
12722;BME280;6425;50.316;8.114;2023-06-14T05:15:00;989;;;16.8;52.8
12722;BME280;6425;50.316;8.114;2023-06-14T05:18:00;989;;;16.8;52.8
12722;BME280;6425;50.316;8.114;2023-06-14T05:21:00;989;;;16.8;52.5
12722;BME280;6425;50.316;8.114;2023-06-14T05:24:00;989;;;16.8;52.9
12722;BME280;6425;50.316;8.114;2023-06-14T05:27:00;989;;;17.1;52.4
12722;BME280;6425;50.316;8.114;2023-06-14T05:30:00;989;;;16.9;52.3
12722;BME280;6425;50.316;8.114;2023-06-14T05:33:00;989;;;17.1;52.4
12722;BME280;6425;50.316;8.114;2023-06-14T05:36:00;989;;;16.9;52.8
12722;BME280;6425;50.316;8.114;2023-06-14T05:39:00;989;;;17.3;52.2
12722;BME280;6425;50.316;8.114;2023-06-14T05:42:00;989;;;17.1;53
12722;BME280;6425;50.316;8.114;2023-06-14T05:45:00;989;;;17.5;52.4
12722;BME280;6425;50.316;8.114;2023-06-14T05:48:00;989;;;16.9;53.1
12722;BME280;6425;50.316;8.114;2023-06-14T05:51:00;989;;;16.6;54.4
12722;BME280;6425;50.316;8.114;2023-06-14T05:54:00;989;;;17.3;53.8
12722;BME280;6425;50.316;8.114;2023-06-14T05:57:00;989;;;18.2;51.1
12722;BME280;6425;50.316;8.114;2023-06-14T06:00:00;989;;;18;51
12722;BME280;6425;50.316;8.114;2023-06-14T06:03:00;989;;;17.9;50.7
12722;BME280;6425;50.316;8.114;2023-06-14T06:06:00;989;;;17.6;51.1
12722;BME280;6425;50.316;8.114;2023-06-14T06:09:00;989;;;17.5;51.4
12722;BME280;6425;50.316;8.114;2023-06-14T06:12:00;989;;;17.5;51.8
12722;BME280;6425;50.316;8.114;2023-06-14T06:15:00;989;;;17.6;51.6
12722;BME280;6425;50.316;8.114;2023-06-14T06:18:00;989;;;18;49.8
12722;BME280;6425;50.316;8.114;2023-06-14T06:21:00;989;;;17.8;50.9
12722;BME280;6425;50.316;8.114;2023-06-14T06:24:00;989;;;18;49.9
12722;BME280;6425;50.316;8.114;2023-06-14T06:27:00;989;;;18.6;49.5
12722;BME280;6425;50.316;8.114;2023-06-14T06:30:00;989;;;18.4;49.3
12722;BME280;6425;50.316;8.114;2023-06-14T06:33:00;989;;;18.2;50.1
12722;BME280;6425;50.316;8.114;2023-06-14T06:36:00;989;;;18.7;48.5
12722;BME280;6425;50.316;8.114;2023-06-14T06:39:00;989;;;18.2;49.4
12722;BME280;6425;50.316;8.114;2023-06-14T06:42:00;989;;;18.2;49.8
12722;BME280;6425;50.316;8.114;2023-06-14T06:45:00;989;;;18.6;49
12722;BME280;6425;50.316;8.114;2023-06-14T06:48:00;989;;;18.6;49.3
12722;BME280;6425;50.316;8.114;2023-06-14T06:51:00;989;;;18.7;49
12722;BME280;6425;50.316;8.114;2023-06-14T06:54:00;989;;;19;48.1
12722;BME280;6425;50.316;8.114;2023-06-14T06:57:00;989;;;18.9;48.1
12722;BME280;6425;50.316;8.114;2023-06-14T07:00:00;989;;;19.5;47.3
12722;BME280;6425;50.316;8.114;2023-06-14T07:03:00;989;;;18.9;47.4
12722;BME280;6425;50.316;8.114;2023-06-14T07:06:00;989;;;18.6;48.4
12722;BME280;6425;50.316;8.114;2023-06-14T07:09:00;989;;;19;48.9
12722;BME280;6425;50.316;8.114;2023-06-14T07:12:00;989;;;19.4;47.1
12722;BME280;6425;50.316;8.114;2023-06-14T07:15:00;989;;;19.5;47.6
12722;BME280;6425;50.316;8.114;2023-06-14T07:18:00;989;;;18.8;48.3
12722;BME280;6425;50.316;8.114;2023-06-14T07:21:00;990;;;19.1;48.4
12722;BME280;6425;50.316;8.114;2023-06-14T07:24:00;990;;;19.2;48
12722;BME280;6425;50.316;8.114;2023-06-14T07:27:00;990;;;18.5;49.2
12722;BME280;6425;50.316;8.114;2023-06-14T07:30:00;990;;;18.8;48.8
12722;BME280;6425;50.316;8.114;2023-06-14T07:33:00;990;;;19.6;47.8
12722;BME280;6425;50.316;8.114;2023-06-14T07:36:00;990;;;20;46.6
12722;BME280;6425;50.316;8.114;2023-06-14T07:39:00;989;;;20.2;45
12722;BME280;6425;50.316;8.114;2023-06-14T07:42:00;990;;;19.4;46.9
12722;BME280;6425;50.316;8.114;2023-06-14T07:45:00;989;;;19.7;45.8
12722;BME280;6425;50.316;8.114;2023-06-14T07:48:00;989;;;19.8;46.5
12722;BME280;6425;50.316;8.114;2023-06-14T07:51:00;989;;;19.5;46.4
12722;BME280;6425;50.316;8.114;2023-06-14T07:54:00;990;;;19.2;46.6
12722;BME280;6425;50.316;8.114;2023-06-14T07:57:00;990;;;19.5;46.4
12722;BME280;6425;50.316;8.114;2023-06-14T08:00:00;989;;;19.8;46.4
12722;BME280;6425;50.316;8.114;2023-06-14T08:03:00;989;;;20.1;46
12722;BME280;6425;50.316;8.114;2023-06-14T08:06:00;990;;;20.1;44.9
12722;BME280;6425;50.316;8.114;2023-06-14T08:09:00;989;;;20.1;45.3
12722;BME280;6425;50.316;8.114;2023-06-14T08:12:00;989;;;19.8;45.1
12722;BME280;6425;50.316;8.114;2023-06-14T08:15:00;990;;;19.8;46.8
12722;BME280;6425;50.316;8.114;2023-06-14T08:18:00;990;;;19.9;45.1
12722;BME280;6425;50.316;8.114;2023-06-14T08:21:00;989;;;20.3;44.7
12722;BME280;6425;50.316;8.114;2023-06-14T08:24:00;990;;;20.1;44.8
12722;BME280;6425;50.316;8.114;2023-06-14T08:27:00;989;;;20.1;44.8
12722;BME280;6425;50.316;8.114;2023-06-14T08:30:00;989;;;20.3;44.4
12722;BME280;6425;50.316;8.114;2023-06-14T08:33:00;989;;;20.6;43.7
12722;BME280;6425;50.316;8.114;2023-06-14T08:36:00;990;;;20.2;43.6
12722;BME280;6425;50.316;8.114;2023-06-14T08:39:00;989;;;20.1;43.9
12722;BME280;6425;50.316;8.114;2023-06-14T08:42:00;990;;;20.2;44.7
12722;BME280;6425;50.316;8.114;2023-06-14T08:45:00;989;;;20.2;44.3
12722;BME280;6425;50.316;8.114;2023-06-14T08:48:00;990;;;19.9;44.3
12722;BME280;6425;50.316;8.114;2023-06-14T08:51:00;990;;;20.1;44.3
12722;BME280;6425;50.316;8.114;2023-06-14T08:54:00;990;;;20.3;44.5
12722;BME280;6425;50.316;8.114;2023-06-14T08:57:00;990;;;20.5;43.5
12722;BME280;6425;50.316;8.114;2023-06-14T09:00:00;989;;;20.2;44.3
12722;BME280;6425;50.316;8.114;2023-06-14T09:03:00;990;;;20.2;44.2
12722;BME280;6425;50.316;8.114;2023-06-14T09:06:00;990;;;20.6;43.9
12722;BME280;6425;50.316;8.114;2023-06-14T09:09:00;990;;;20.8;42.4
12722;BME280;6425;50.316;8.114;2023-06-14T09:12:00;990;;;20.4;42.2
12722;BME280;6425;50.316;8.114;2023-06-14T09:15:00;990;;;20.4;42.2
12722;BME280;6425;50.316;8.114;2023-06-14T09:18:00;990;;;20;42.1
12722;BME280;6425;50.316;8.114;2023-06-14T09:21:00;990;;;19.7;42.7
12722;BME280;6425;50.316;8.114;2023-06-14T09:24:00;990;;;20;41.7
12722;BME280;6425;50.316;8.114;2023-06-14T09:27:00;990;;;20.5;41.2
12722;BME280;6425;50.316;8.114;2023-06-14T09:30:00;990;;;20.7;41.9
12722;BME280;6425;50.316;8.114;2023-06-14T09:33:00;990;;;20.8;41.6
12722;BME280;6425;50.316;8.114;2023-06-14T09:36:00;990;;;20.6;41.7
12722;BME280;6425;50.316;8.114;2023-06-14T09:39:00;990;;;20.1;42.3
12722;BME280;6425;50.316;8.114;2023-06-14T09:42:00;990;;;20;42.9
12722;BME280;6425;50.316;8.114;2023-06-14T09:45:00;990;;;20.5;42.2
12722;BME280;6425;50.316;8.114;2023-06-14T09:48:00;990;;;20.4;41.2
12722;BME280;6425;50.316;8.114;2023-06-14T09:51:00;990;;;20.5;41.5
12722;BME280;6425;50.316;8.114;2023-06-14T09:54:00;990;;;20.9;41.1
12722;BME280;6425;50.316;8.114;2023-06-14T09:57:00;990;;;20.4;41.8
12722;BME280;6425;50.316;8.114;2023-06-14T10:00:00;990;;;20.2;43.1
12722;BME280;6425;50.316;8.114;2023-06-14T10:03:00;990;;;20.1;43.2
12722;BME280;6425;50.316;8.114;2023-06-14T10:06:00;990;;;20.7;43.1
12722;BME280;6425;50.316;8.114;2023-06-14T10:09:00;990;;;21.3;41.7
12722;BME280;6425;50.316;8.114;2023-06-14T10:12:00;990;;;21.1;40.8
12722;BME280;6425;50.316;8.114;2023-06-14T10:15:00;990;;;21.5;40.5
12722;BME280;6425;50.316;8.114;2023-06-14T10:18:01;990;;;21.5;39.6
12722;BME280;6425;50.316;8.114;2023-06-14T10:21:02;990;;;21.5;39
12722;BME280;6425;50.316;8.114;2023-06-14T10:24:01;990;;;20.8;40.9
12722;BME280;6425;50.316;8.114;2023-06-14T10:27:00;990;;;21.4;40.2
12722;BME280;6425;50.316;8.114;2023-06-14T10:30:01;990;;;21.7;39.6
12722;BME280;6425;50.316;8.114;2023-06-14T10:33:03;990;;;21.5;39.4
12722;BME280;6425;50.316;8.114;2023-06-14T10:36:31;990;;;21.3;38.8
12722;BME280;6425;50.316;8.114;2023-06-14T10:39:00;990;;;21.3;39.3
12722;BME280;6425;50.316;8.114;2023-06-14T10:42:01;990;;;21.6;40
12722;BME280;6425;50.316;8.114;2023-06-14T10:45:00;990;;;21.7;39.4
12722;BME280;6425;50.316;8.114;2023-06-14T10:48:00;990;;;21.2;40.5
12722;BME280;6425;50.316;8.114;2023-06-14T10:51:00;990;;;21.6;40
12722;BME280;6425;50.316;8.114;2023-06-14T10:54:00;990;;;21.9;39.4
12722;BME280;6425;50.316;8.114;2023-06-14T10:57:00;990;;;22.1;38.4
12722;BME280;6425;50.316;8.114;2023-06-14T11:00:00;990;;;22.2;39
12722;BME280;6425;50.316;8.114;2023-06-14T11:03:10;990;;;22;38.6
12722;BME280;6425;50.316;8.114;2023-06-14T11:06:00;990;;;21.6;38.8
12722;BME280;6425;50.316;8.114;2023-06-14T11:10:05;990;;;21.6;39.7
12722;BME280;6425;50.316;8.114;2023-06-14T11:12:00;990;;;21.6;39.5
12722;BME280;6425;50.316;8.114;2023-06-14T11:15:00;990;;;21.4;39.8
12722;BME280;6425;50.316;8.114;2023-06-14T11:18:00;990;;;21.6;39.9
12722;BME280;6425;50.316;8.114;2023-06-14T11:21:00;990;;;21.9;38.8
12722;BME280;6425;50.316;8.114;2023-06-14T11:24:00;990;;;21.9;38.2
12722;BME280;6425;50.316;8.114;2023-06-14T11:27:00;990;;;22.4;37.3
12722;BME280;6425;50.316;8.114;2023-06-14T11:30:00;990;;;23.4;36.4
12722;BME280;6425;50.316;8.114;2023-06-14T11:33:00;990;;;23.6;35.3
12722;BME280;6425;50.316;8.114;2023-06-14T11:36:01;990;;;22.9;37.3
12722;BME280;6425;50.316;8.114;2023-06-14T11:39:00;990;;;22.4;38.7
12722;BME280;6425;50.316;8.114;2023-06-14T11:42:00;990;;;22.2;38.6
12722;BME280;6425;50.316;8.114;2023-06-14T11:45:00;990;;;22.1;38.3
12722;BME280;6425;50.316;8.114;2023-06-14T11:48:00;990;;;22.5;38.7
12722;BME280;6425;50.316;8.114;2023-06-14T11:51:00;990;;;22.3;38.7
12722;BME280;6425;50.316;8.114;2023-06-14T11:54:00;990;;;22.3;38.8
12722;BME280;6425;50.316;8.114;2023-06-14T11:57:00;990;;;23.1;37.5
12722;BME280;6425;50.316;8.114;2023-06-14T12:00:00;990;;;22.6;38.5
12722;BME280;6425;50.316;8.114;2023-06-14T12:03:00;990;;;22.8;38.5
12722;BME280;6425;50.316;8.114;2023-06-14T12:06:08;990;;;23;36.6
12722;BME280;6425;50.316;8.114;2023-06-14T12:09:00;990;;;23.8;35.1
12722;BME280;6425;50.316;8.114;2023-06-14T12:12:00;990;;;22.7;36.7
12722;BME280;6425;50.316;8.114;2023-06-14T12:15:00;990;;;23.3;36.1
12722;BME280;6425;50.316;8.114;2023-06-14T12:18:00;990;;;23.3;36
12722;BME280;6425;50.316;8.114;2023-06-14T12:21:00;990;;;21.8;38.4
12722;BME280;6425;50.316;8.114;2023-06-14T12:24:03;990;;;22;38.6
12722;BME280;6425;50.316;8.114;2023-06-14T12:27:00;990;;;22.4;37.1
12722;BME280;6425;50.316;8.114;2023-06-14T12:30:00;990;;;22.9;37
12722;BME280;6425;50.316;8.114;2023-06-14T12:33:01;990;;;23.2;36.1
12722;BME280;6425;50.316;8.114;2023-06-14T12:36:00;990;;;23;36.6
12722;BME280;6425;50.316;8.114;2023-06-14T12:39:00;990;;;22.4;38
12722;BME280;6425;50.316;8.114;2023-06-14T12:42:00;990;;;22.4;36.8
12722;BME280;6425;50.316;8.114;2023-06-14T12:45:00;990;;;22.1;38.5
12722;BME280;6425;50.316;8.114;2023-06-14T12:48:00;990;;;22.1;37.8
12722;BME280;6425;50.316;8.114;2023-06-14T12:51:00;990;;;22.5;37.7
12722;BME280;6425;50.316;8.114;2023-06-14T12:54:00;990;;;23.3;36.5
12722;BME280;6425;50.316;8.114;2023-06-14T12:57:00;990;;;22.7;37.2
12722;BME280;6425;50.316;8.114;2023-06-14T13:00:00;990;;;22;38.9
12722;BME280;6425;50.316;8.114;2023-06-14T13:03:00;990;;;22.3;38.2
12722;BME280;6425;50.316;8.114;2023-06-14T13:06:00;990;;;22.3;38.3
12722;BME280;6425;50.316;8.114;2023-06-14T13:09:00;990;;;22.8;37.3
12722;BME280;6425;50.316;8.114;2023-06-14T13:12:00;990;;;23.4;35.5
12722;BME280;6425;50.316;8.114;2023-06-14T13:15:00;990;;;22.7;36.4
12722;BME280;6425;50.316;8.114;2023-06-14T13:18:00;990;;;22.5;38.5
12722;BME280;6425;50.316;8.114;2023-06-14T13:21:00;990;;;22.5;39.6
12722;BME280;6425;50.316;8.114;2023-06-14T13:24:00;990;;;23.7;37.2
12722;BME280;6425;50.316;8.114;2023-06-14T13:27:00;990;;;23.2;38.2
12722;BME280;6425;50.316;8.114;2023-06-14T13:30:00;990;;;22.8;37.4
12722;BME280;6425;50.316;8.114;2023-06-14T13:33:00;990;;;22.8;38.1
12722;BME280;6425;50.316;8.114;2023-06-14T13:36:00;990;;;23.3;38
12722;BME280;6425;50.316;8.114;2023-06-14T13:39:00;990;;;22.8;38.4
12722;BME280;6425;50.316;8.114;2023-06-14T13:42:00;990;;;22.6;39.3
12722;BME280;6425;50.316;8.114;2023-06-14T13:45:00;990;;;22.6;38.3
12722;BME280;6425;50.316;8.114;2023-06-14T13:48:00;990;;;22.4;39.3
12722;BME280;6425;50.316;8.114;2023-06-14T13:51:00;990;;;22.5;39.1
12722;BME280;6425;50.316;8.114;2023-06-14T13:54:00;990;;;22.3;38.3
12722;BME280;6425;50.316;8.114;2023-06-14T13:57:00;990;;;22.6;38.7
12722;BME280;6425;50.316;8.114;2023-06-14T14:00:00;990;;;22.5;38.3
12722;BME280;6425;50.316;8.114;2023-06-14T14:03:00;990;;;22.9;37.6
12722;BME280;6425;50.316;8.114;2023-06-14T14:06:00;990;;;23.6;36.6
12722;BME280;6425;50.316;8.114;2023-06-14T14:09:00;990;;;23;39.1
12722;BME280;6425;50.316;8.114;2023-06-14T14:12:00;990;;;22.6;40.7
12722;BME280;6425;50.316;8.114;2023-06-14T14:15:00;990;;;22.4;40.2
12722;BME280;6425;50.316;8.114;2023-06-14T14:18:00;990;;;22.7;39.3
12722;BME280;6425;50.316;8.114;2023-06-14T14:21:00;990;;;22.5;39.9
12722;BME280;6425;50.316;8.114;2023-06-14T14:24:00;990;;;22.8;38.4
12722;BME280;6425;50.316;8.114;2023-06-14T14:27:00;990;;;22.7;38.5
12722;BME280;6425;50.316;8.114;2023-06-14T14:30:00;990;;;22.6;38.5
12722;BME280;6425;50.316;8.114;2023-06-14T14:33:00;990;;;23.4;37.3
12722;BME280;6425;50.316;8.114;2023-06-14T14:36:00;990;;;24.1;36.5
12722;BME280;6425;50.316;8.114;2023-06-14T14:39:00;990;;;23.9;36.5
12722;BME280;6425;50.316;8.114;2023-06-14T14:42:00;990;;;23;38.3
12722;BME280;6425;50.316;8.114;2023-06-14T14:45:00;990;;;22.4;39.3
12722;BME280;6425;50.316;8.114;2023-06-14T14:48:00;990;;;22.2;40.1
12722;BME280;6425;50.316;8.114;2023-06-14T14:51:00;990;;;22.3;39.6
12722;BME280;6425;50.316;8.114;2023-06-14T14:54:00;990;;;23;38.3
12722;BME280;6425;50.316;8.114;2023-06-14T14:57:00;990;;;23.8;36.9
12722;BME280;6425;50.316;8.114;2023-06-14T15:00:00;990;;;23.1;37.8
12722;BME280;6425;50.316;8.114;2023-06-14T15:03:00;990;;;23.9;36.5
12722;BME280;6425;50.316;8.114;2023-06-14T15:06:00;990;;;24;35.7
12722;BME280;6425;50.316;8.114;2023-06-14T15:09:00;990;;;24.7;35.3
12722;BME280;6425;50.316;8.114;2023-06-14T15:12:00;989;;;24.8;33.7
12722;BME280;6425;50.316;8.114;2023-06-14T15:15:00;990;;;24.5;34.1
12722;BME280;6425;50.316;8.114;2023-06-14T15:18:00;990;;;23.8;35.2
12722;BME280;6425;50.316;8.114;2023-06-14T15:21:00;990;;;23.1;37
12722;BME280;6425;50.316;8.114;2023-06-14T15:24:00;990;;;23.1;37.1
12722;BME280;6425;50.316;8.114;2023-06-14T15:27:00;990;;;23.2;37.3
12722;BME280;6425;50.316;8.114;2023-06-14T15:30:00;990;;;23.3;36.6
12722;BME280;6425;50.316;8.114;2023-06-14T15:33:00;990;;;23.1;36.3
12722;BME280;6425;50.316;8.114;2023-06-14T15:36:00;990;;;23;36.7
12722;BME280;6425;50.316;8.114;2023-06-14T15:39:00;990;;;22.8;37.7
12722;BME280;6425;50.316;8.114;2023-06-14T15:42:00;990;;;22.9;38.4
12722;BME280;6425;50.316;8.114;2023-06-14T15:45:00;990;;;23.9;36.9
12722;BME280;6425;50.316;8.114;2023-06-14T15:48:00;990;;;24.4;35.4
12722;BME280;6425;50.316;8.114;2023-06-14T15:51:00;989;;;24.6;34.5
12722;BME280;6425;50.316;8.114;2023-06-14T15:54:00;990;;;24.5;35.5
12722;BME280;6425;50.316;8.114;2023-06-14T15:57:00;989;;;23.8;36.4
12722;BME280;6425;50.316;8.114;2023-06-14T16:00:00;990;;;23.5;36.8
12722;BME280;6425;50.316;8.114;2023-06-14T16:03:00;990;;;23.9;36.8
12722;BME280;6425;50.316;8.114;2023-06-14T16:06:00;989;;;24.1;36.6
12722;BME280;6425;50.316;8.114;2023-06-14T16:09:00;990;;;23.9;36.8
12722;BME280;6425;50.316;8.114;2023-06-14T16:12:00;989;;;23.5;36.5
12722;BME280;6425;50.316;8.114;2023-06-14T16:15:00;989;;;23.3;37.8
12722;BME280;6425;50.316;8.114;2023-06-14T16:18:00;989;;;23.2;37.1
12722;BME280;6425;50.316;8.114;2023-06-14T16:21:00;989;;;22.9;37.5
12722;BME280;6425;50.316;8.114;2023-06-14T16:24:00;989;;;23;36.7
12722;BME280;6425;50.316;8.114;2023-06-14T16:27:00;989;;;23;37.9
12722;BME280;6425;50.316;8.114;2023-06-14T16:30:00;989;;;22.9;37.9
12722;BME280;6425;50.316;8.114;2023-06-14T16:33:00;989;;;23;37.8
12722;BME280;6425;50.316;8.114;2023-06-14T16:36:00;989;;;23.6;36
12722;BME280;6425;50.316;8.114;2023-06-14T16:39:00;989;;;24;35.5
12722;BME280;6425;50.316;8.114;2023-06-14T16:42:00;989;;;24.4;34.9
12722;BME280;6425;50.316;8.114;2023-06-14T16:45:00;989;;;24.5;34.8
12722;BME280;6425;50.316;8.114;2023-06-14T16:48:00;989;;;23.9;36.8
12722;BME280;6425;50.316;8.114;2023-06-14T16:51:00;989;;;23.7;35.5
12722;BME280;6425;50.316;8.114;2023-06-14T16:54:00;989;;;23.8;35.6
12722;BME280;6425;50.316;8.114;2023-06-14T16:57:00;989;;;23.7;36.3
12722;BME280;6425;50.316;8.114;2023-06-14T17:00:00;989;;;23.6;36.8
12722;BME280;6425;50.316;8.114;2023-06-14T17:03:00;990;;;23.8;37.3
12722;BME280;6425;50.316;8.114;2023-06-14T17:06:00;989;;;24.1;36.9
12722;BME280;6425;50.316;8.114;2023-06-14T17:09:00;989;;;24.5;35.9
12722;BME280;6425;50.316;8.114;2023-06-14T17:12:00;989;;;24.9;35.5
12722;BME280;6425;50.316;8.114;2023-06-14T17:15:00;989;;;24.6;34.7
12722;BME280;6425;50.316;8.114;2023-06-14T17:18:00;990;;;24;35.5
12722;BME280;6425;50.316;8.114;2023-06-14T17:21:00;990;;;24.5;35.3
12722;BME280;6425;50.316;8.114;2023-06-14T17:24:00;990;;;24.4;35.7
12722;BME280;6425;50.316;8.114;2023-06-14T17:27:00;990;;;24;37
12722;BME280;6425;50.316;8.114;2023-06-14T17:30:00;990;;;23.4;37.3
12722;BME280;6425;50.316;8.114;2023-06-14T17:33:00;990;;;23.6;36.6
12722;BME280;6425;50.316;8.114;2023-06-14T17:36:00;990;;;23.9;36.8
12722;BME280;6425;50.316;8.114;2023-06-14T17:39:00;990;;;23.5;36.4
12722;BME280;6425;50.316;8.114;2023-06-14T17:42:00;990;;;23.5;36.8
12722;BME280;6425;50.316;8.114;2023-06-14T17:45:00;990;;;23.6;35.8
12722;BME280;6425;50.316;8.114;2023-06-14T17:48:00;990;;;23.4;36.5
12722;BME280;6425;50.316;8.114;2023-06-14T17:51:00;990;;;23.1;37